sensor_id;sensor_type;location;lat;lon;timestamp;P1;durP1;ratioP1;P2;durP2;ratioP2
12312;SDS011;6220;53.580;9.758;2023-03-01T00:01:49;4.17;;;3.73;;
12312;SDS011;6220;53.580;9.758;2023-03-01T00:04:15;5.10;;;4.00;;
12312;SDS011;6220;53.580;9.758;2023-03-01T00:06:41;5.17;;;3.90;;
12312;SDS011;6220;53.580;9.758;2023-03-01T00:09:08;4.03;;;3.30;;
12312;SDS011;6220;53.580;9.758;2023-03-01T00:11:33;4.23;;;3.13;;
12312;SDS011;6220;53.580;9.758;2023-03-01T00:14:00;4.00;;;3.20;;
12312;SDS011;6220;53.580;9.758;2023-03-01T00:16:27;5.27;;;2.90;;
12312;SDS011;6220;53.580;9.758;2023-03-01T00:18:55;4.10;;;2.80;;
12312;SDS011;6220;53.580;9.758;2023-03-01T00:21:21;3.67;;;3.03;;
12312;SDS011;6220;53.580;9.758;2023-03-01T00:23:50;5.87;;;3.10;;
12312;SDS011;6220;53.580;9.758;2023-03-01T00:26:24;2.97;;;2.63;;
12312;SDS011;6220;53.580;9.758;2023-03-01T00:28:50;5.00;;;3.13;;
12312;SDS011;6220;53.580;9.758;2023-03-01T00:31:17;3.67;;;2.87;;
12312;SDS011;6220;53.580;9.758;2023-03-01T00:33:44;3.27;;;2.97;;
12312;SDS011;6220;53.580;9.758;2023-03-01T00:36:11;4.17;;;2.97;;
12312;SDS011;6220;53.580;9.758;2023-03-01T00:38:39;3.23;;;2.70;;
12312;SDS011;6220;53.580;9.758;2023-03-01T00:41:07;3.60;;;2.77;;
12312;SDS011;6220;53.580;9.758;2023-03-01T00:43:34;3.60;;;2.90;;
12312;SDS011;6220;53.580;9.758;2023-03-01T00:46:04;4.47;;;2.97;;
12312;SDS011;6220;53.580;9.758;2023-03-01T00:48:32;4.37;;;2.87;;
12312;SDS011;6220;53.580;9.758;2023-03-01T00:51:04;5.57;;;3.00;;
12312;SDS011;6220;53.580;9.758;2023-03-01T00:53:30;3.93;;;3.27;;
12312;SDS011;6220;53.580;9.758;2023-03-01T00:55:56;4.37;;;3.40;;
12312;SDS011;6220;53.580;9.758;2023-03-01T00:58:22;4.87;;;3.20;;
12312;SDS011;6220;53.580;9.758;2023-03-01T01:00:48;4.47;;;3.10;;
12312;SDS011;6220;53.580;9.758;2023-03-01T01:03:14;3.57;;;2.93;;
12312;SDS011;6220;53.580;9.758;2023-03-01T01:05:39;4.33;;;2.70;;
12312;SDS011;6220;53.580;9.758;2023-03-01T01:08:04;4.33;;;3.10;;
12312;SDS011;6220;53.580;9.758;2023-03-01T01:10:30;3.70;;;3.03;;
12312;SDS011;6220;53.580;9.758;2023-03-01T01:12:56;4.40;;;3.37;;
12312;SDS011;6220;53.580;9.758;2023-03-01T01:15:21;4.10;;;2.87;;
12312;SDS011;6220;53.580;9.758;2023-03-01T01:17:46;3.50;;;3.20;;
12312;SDS011;6220;53.580;9.758;2023-03-01T01:20:12;3.37;;;2.87;;
12312;SDS011;6220;53.580;9.758;2023-03-01T01:22:38;4.63;;;3.53;;
12312;SDS011;6220;53.580;9.758;2023-03-01T01:25:03;4.07;;;3.13;;
12312;SDS011;6220;53.580;9.758;2023-03-01T01:27:29;4.00;;;3.17;;
12312;SDS011;6220;53.580;9.758;2023-03-01T01:29:55;5.47;;;2.90;;
12312;SDS011;6220;53.580;9.758;2023-03-01T01:32:20;8.00;;;3.70;;
12312;SDS011;6220;53.580;9.758;2023-03-01T01:34:45;5.33;;;3.30;;
12312;SDS011;6220;53.580;9.758;2023-03-01T01:37:12;5.17;;;2.90;;
12312;SDS011;6220;53.580;9.758;2023-03-01T01:39:37;4.63;;;3.40;;
12312;SDS011;6220;53.580;9.758;2023-03-01T01:42:04;4.13;;;3.20;;
12312;SDS011;6220;53.580;9.758;2023-03-01T01:44:29;4.40;;;3.27;;
12312;SDS011;6220;53.580;9.758;2023-03-01T01:46:56;3.83;;;3.40;;
12312;SDS011;6220;53.580;9.758;2023-03-01T01:49:42;3.77;;;3.10;;
12312;SDS011;6220;53.580;9.758;2023-03-01T01:52:11;6.30;;;3.60;;
12312;SDS011;6220;53.580;9.758;2023-03-01T01:57:27;9.37;;;4.37;;
12312;SDS011;6220;53.580;9.758;2023-03-01T02:00:00;6.33;;;3.93;;
12312;SDS011;6220;53.580;9.758;2023-03-01T02:02:30;4.87;;;3.70;;
12312;SDS011;6220;53.580;9.758;2023-03-01T02:05:00;6.10;;;4.13;;
12312;SDS011;6220;53.580;9.758;2023-03-01T02:07:28;4.80;;;3.60;;
12312;SDS011;6220;53.580;9.758;2023-03-01T02:09:54;5.60;;;3.97;;
12312;SDS011;6220;53.580;9.758;2023-03-01T02:12:21;6.63;;;4.07;;
12312;SDS011;6220;53.580;9.758;2023-03-01T02:14:48;7.37;;;4.30;;
12312;SDS011;6220;53.580;9.758;2023-03-01T02:17:15;6.10;;;4.50;;
12312;SDS011;6220;53.580;9.758;2023-03-01T02:19:51;6.53;;;4.47;;
12312;SDS011;6220;53.580;9.758;2023-03-01T02:22:22;5.17;;;4.17;;
12312;SDS011;6220;53.580;9.758;2023-03-01T02:27:18;7.33;;;4.63;;
12312;SDS011;6220;53.580;9.758;2023-03-01T02:29:47;5.20;;;4.43;;
12312;SDS011;6220;53.580;9.758;2023-03-01T02:32:12;9.27;;;4.67;;
12312;SDS011;6220;53.580;9.758;2023-03-01T02:34:38;7.73;;;4.80;;
12312;SDS011;6220;53.580;9.758;2023-03-01T02:37:08;6.20;;;4.23;;
12312;SDS011;6220;53.580;9.758;2023-03-01T02:39:41;5.73;;;4.80;;
12312;SDS011;6220;53.580;9.758;2023-03-01T02:42:17;6.40;;;4.57;;
12312;SDS011;6220;53.580;9.758;2023-03-01T02:44:46;7.63;;;4.77;;
12312;SDS011;6220;53.580;9.758;2023-03-01T02:47:11;5.13;;;4.47;;
12312;SDS011;6220;53.580;9.758;2023-03-01T02:49:37;6.00;;;4.77;;
12312;SDS011;6220;53.580;9.758;2023-03-01T02:57:26;6.43;;;4.83;;
12312;SDS011;6220;53.580;9.758;2023-03-01T02:59:53;6.53;;;4.40;;
12312;SDS011;6220;53.580;9.758;2023-03-01T03:02:21;5.93;;;4.67;;
12312;SDS011;6220;53.580;9.758;2023-03-01T03:05:07;5.20;;;4.27;;
12312;SDS011;6220;53.580;9.758;2023-03-01T03:07:35;6.30;;;4.73;;
12312;SDS011;6220;53.580;9.758;2023-03-01T03:10:03;4.93;;;4.23;;
12312;SDS011;6220;53.580;9.758;2023-03-01T03:12:29;6.67;;;4.40;;
12312;SDS011;6220;53.580;9.758;2023-03-01T03:14:55;5.70;;;4.47;;
12312;SDS011;6220;53.580;9.758;2023-03-01T03:17:20;5.70;;;4.00;;
12312;SDS011;6220;53.580;9.758;2023-03-01T03:19:45;6.87;;;4.10;;
12312;SDS011;6220;53.580;9.758;2023-03-01T03:22:11;7.10;;;4.33;;
12312;SDS011;6220;53.580;9.758;2023-03-01T03:24:37;5.53;;;4.37;;
12312;SDS011;6220;53.580;9.758;2023-03-01T03:27:03;5.90;;;4.63;;
12312;SDS011;6220;53.580;9.758;2023-03-01T03:29:29;6.03;;;4.80;;
12312;SDS011;6220;53.580;9.758;2023-03-01T03:31:57;5.60;;;4.57;;
12312;SDS011;6220;53.580;9.758;2023-03-01T03:34:23;6.70;;;4.50;;
12312;SDS011;6220;53.580;9.758;2023-03-01T03:36:52;5.10;;;4.57;;
12312;SDS011;6220;53.580;9.758;2023-03-01T03:39:25;6.53;;;4.73;;
12312;SDS011;6220;53.580;9.758;2023-03-01T03:41:52;6.27;;;4.13;;
12312;SDS011;6220;53.580;9.758;2023-03-01T03:44:18;7.63;;;4.40;;
12312;SDS011;6220;53.580;9.758;2023-03-01T03:46:44;5.60;;;4.30;;
12312;SDS011;6220;53.580;9.758;2023-03-01T03:49:09;5.90;;;4.57;;
12312;SDS011;6220;53.580;9.758;2023-03-01T03:51:34;5.77;;;4.53;;
12312;SDS011;6220;53.580;9.758;2023-03-01T03:54:00;5.23;;;4.43;;
12312;SDS011;6220;53.580;9.758;2023-03-01T03:56:25;7.57;;;4.40;;
12312;SDS011;6220;53.580;9.758;2023-03-01T03:58:51;6.67;;;4.43;;
12312;SDS011;6220;53.580;9.758;2023-03-01T04:01:17;6.00;;;4.20;;
12312;SDS011;6220;53.580;9.758;2023-03-01T04:03:42;5.37;;;3.80;;
12312;SDS011;6220;53.580;9.758;2023-03-01T04:06:11;7.63;;;4.27;;
12312;SDS011;6220;53.580;9.758;2023-03-01T04:08:40;4.57;;;3.70;;
12312;SDS011;6220;53.580;9.758;2023-03-01T04:11:06;4.73;;;3.90;;
12312;SDS011;6220;53.580;9.758;2023-03-01T04:13:51;7.63;;;3.90;;
12312;SDS011;6220;53.580;9.758;2023-03-01T04:16:17;4.27;;;3.73;;
12312;SDS011;6220;53.580;9.758;2023-03-01T04:18:44;4.90;;;3.90;;
12312;SDS011;6220;53.580;9.758;2023-03-01T04:21:10;5.43;;;4.20;;
12312;SDS011;6220;53.580;9.758;2023-03-01T04:23:36;7.90;;;4.33;;
12312;SDS011;6220;53.580;9.758;2023-03-01T04:26:02;5.60;;;4.40;;
12312;SDS011;6220;53.580;9.758;2023-03-01T04:28:32;5.93;;;4.77;;
12312;SDS011;6220;53.580;9.758;2023-03-01T04:31:02;4.93;;;4.23;;
12312;SDS011;6220;53.580;9.758;2023-03-01T04:33:41;5.07;;;3.93;;
12312;SDS011;6220;53.580;9.758;2023-03-01T04:36:08;4.63;;;3.90;;
12312;SDS011;6220;53.580;9.758;2023-03-01T04:38:36;6.00;;;4.63;;
12312;SDS011;6220;53.580;9.758;2023-03-01T04:41:03;5.87;;;4.60;;
12312;SDS011;6220;53.580;9.758;2023-03-01T04:43:33;5.57;;;4.83;;
12312;SDS011;6220;53.580;9.758;2023-03-01T04:46:03;7.50;;;6.07;;
12312;SDS011;6220;53.580;9.758;2023-03-01T04:48:31;7.40;;;6.03;;
12312;SDS011;6220;53.580;9.758;2023-03-01T04:50:57;7.77;;;5.20;;
12312;SDS011;6220;53.580;9.758;2023-03-01T04:53:23;6.03;;;5.30;;
12312;SDS011;6220;53.580;9.758;2023-03-01T04:55:49;6.67;;;6.07;;
12312;SDS011;6220;53.580;9.758;2023-03-01T04:58:15;6.77;;;5.07;;
12312;SDS011;6220;53.580;9.758;2023-03-01T05:00:41;7.83;;;5.60;;
12312;SDS011;6220;53.580;9.758;2023-03-01T05:03:06;9.27;;;6.20;;
12312;SDS011;6220;53.580;9.758;2023-03-01T05:05:33;9.83;;;7.90;;
12312;SDS011;6220;53.580;9.758;2023-03-01T05:08:02;12.53;;;10.50;;
12312;SDS011;6220;53.580;9.758;2023-03-01T05:10:30;14.53;;;11.80;;
12312;SDS011;6220;53.580;9.758;2023-03-01T05:12:56;12.63;;;9.87;;
12312;SDS011;6220;53.580;9.758;2023-03-01T05:15:25;11.77;;;9.40;;
12312;SDS011;6220;53.580;9.758;2023-03-01T05:17:52;11.17;;;9.17;;
12312;SDS011;6220;53.580;9.758;2023-03-01T05:20:19;9.60;;;7.50;;
12312;SDS011;6220;53.580;9.758;2023-03-01T05:22:48;10.80;;;7.80;;
12312;SDS011;6220;53.580;9.758;2023-03-01T05:25:13;8.90;;;7.40;;
12312;SDS011;6220;53.580;9.758;2023-03-01T05:27:39;8.77;;;7.17;;
12312;SDS011;6220;53.580;9.758;2023-03-01T05:30:04;9.90;;;6.37;;
12312;SDS011;6220;53.580;9.758;2023-03-01T05:32:38;6.87;;;5.43;;
12312;SDS011;6220;53.580;9.758;2023-03-01T05:35:05;7.60;;;5.50;;
12312;SDS011;6220;53.580;9.758;2023-03-01T05:37:30;9.30;;;6.23;;
12312;SDS011;6220;53.580;9.758;2023-03-01T05:39:55;7.20;;;5.90;;
12312;SDS011;6220;53.580;9.758;2023-03-01T05:42:21;6.37;;;5.63;;
12312;SDS011;6220;53.580;9.758;2023-03-01T05:44:46;8.67;;;6.03;;
12312;SDS011;6220;53.580;9.758;2023-03-01T05:47:11;5.70;;;4.70;;
12312;SDS011;6220;53.580;9.758;2023-03-01T05:49:39;6.80;;;5.60;;
12312;SDS011;6220;53.580;9.758;2023-03-01T05:52:04;9.53;;;4.83;;
12312;SDS011;6220;53.580;9.758;2023-03-01T05:54:29;6.50;;;5.20;;
12312;SDS011;6220;53.580;9.758;2023-03-01T05:56:55;6.83;;;5.70;;
12312;SDS011;6220;53.580;9.758;2023-03-01T05:59:21;8.17;;;5.73;;
12312;SDS011;6220;53.580;9.758;2023-03-01T06:01:46;7.43;;;4.83;;
12312;SDS011;6220;53.580;9.758;2023-03-01T06:04:11;6.33;;;4.83;;
12312;SDS011;6220;53.580;9.758;2023-03-01T06:06:37;8.37;;;5.00;;
12312;SDS011;6220;53.580;9.758;2023-03-01T06:09:03;6.77;;;4.77;;
12312;SDS011;6220;53.580;9.758;2023-03-01T06:11:29;6.93;;;5.20;;
12312;SDS011;6220;53.580;9.758;2023-03-01T06:13:54;6.83;;;5.50;;
12312;SDS011;6220;53.580;9.758;2023-03-01T06:16:20;7.10;;;5.07;;
12312;SDS011;6220;53.580;9.758;2023-03-01T06:18:45;7.77;;;5.33;;
12312;SDS011;6220;53.580;9.758;2023-03-01T06:21:10;7.43;;;5.07;;
12312;SDS011;6220;53.580;9.758;2023-03-01T06:23:36;10.60;;;5.60;;
12312;SDS011;6220;53.580;9.758;2023-03-01T06:26:05;8.90;;;5.33;;
12312;SDS011;6220;53.580;9.758;2023-03-01T06:28:31;8.17;;;5.33;;
12312;SDS011;6220;53.580;9.758;2023-03-01T06:30:57;8.20;;;5.17;;
12312;SDS011;6220;53.580;9.758;2023-03-01T06:33:22;12.57;;;5.40;;
12312;SDS011;6220;53.580;9.758;2023-03-01T06:35:49;10.70;;;5.30;;
12312;SDS011;6220;53.580;9.758;2023-03-01T06:38:14;8.27;;;5.70;;
12312;SDS011;6220;53.580;9.758;2023-03-01T06:40:42;8.67;;;5.40;;
12312;SDS011;6220;53.580;9.758;2023-03-01T06:43:07;11.33;;;6.27;;
12312;SDS011;6220;53.580;9.758;2023-03-01T06:45:33;11.73;;;5.43;;
12312;SDS011;6220;53.580;9.758;2023-03-01T06:48:05;12.47;;;6.37;;
12312;SDS011;6220;53.580;9.758;2023-03-01T06:50:31;9.27;;;6.37;;
12312;SDS011;6220;53.580;9.758;2023-03-01T06:52:57;11.73;;;6.67;;
12312;SDS011;6220;53.580;9.758;2023-03-01T06:55:22;10.23;;;6.97;;
12312;SDS011;6220;53.580;9.758;2023-03-01T06:57:48;11.87;;;7.20;;
12312;SDS011;6220;53.580;9.758;2023-03-01T07:00:13;9.97;;;7.07;;
12312;SDS011;6220;53.580;9.758;2023-03-01T07:02:39;9.53;;;6.73;;
12312;SDS011;6220;53.580;9.758;2023-03-01T07:05:04;6.87;;;5.70;;
12312;SDS011;6220;53.580;9.758;2023-03-01T07:07:30;9.20;;;5.80;;
12312;SDS011;6220;53.580;9.758;2023-03-01T07:09:55;8.40;;;5.77;;
12312;SDS011;6220;53.580;9.758;2023-03-01T07:12:21;8.10;;;6.20;;
12312;SDS011;6220;53.580;9.758;2023-03-01T07:14:46;13.27;;;6.50;;
12312;SDS011;6220;53.580;9.758;2023-03-01T07:17:12;10.60;;;6.67;;
12312;SDS011;6220;53.580;9.758;2023-03-01T07:19:37;8.53;;;6.90;;
12312;SDS011;6220;53.580;9.758;2023-03-01T07:22:03;9.83;;;6.37;;
12312;SDS011;6220;53.580;9.758;2023-03-01T07:24:29;9.30;;;5.90;;
12312;SDS011;6220;53.580;9.758;2023-03-01T07:26:54;7.90;;;5.97;;
12312;SDS011;6220;53.580;9.758;2023-03-01T07:29:20;7.80;;;5.80;;
12312;SDS011;6220;53.580;9.758;2023-03-01T07:31:46;8.03;;;5.67;;
12312;SDS011;6220;53.580;9.758;2023-03-01T07:34:11;8.00;;;6.10;;
12312;SDS011;6220;53.580;9.758;2023-03-01T07:36:37;9.27;;;5.50;;
12312;SDS011;6220;53.580;9.758;2023-03-01T07:39:04;6.43;;;5.10;;
12312;SDS011;6220;53.580;9.758;2023-03-01T07:41:29;7.53;;;5.53;;
12312;SDS011;6220;53.580;9.758;2023-03-01T07:43:55;6.03;;;5.43;;
12312;SDS011;6220;53.580;9.758;2023-03-01T07:46:20;8.60;;;6.13;;
12312;SDS011;6220;53.580;9.758;2023-03-01T07:48:46;7.00;;;5.83;;
12312;SDS011;6220;53.580;9.758;2023-03-01T07:51:11;10.63;;;6.77;;
12312;SDS011;6220;53.580;9.758;2023-03-01T07:53:37;6.90;;;6.20;;
12312;SDS011;6220;53.580;9.758;2023-03-01T07:56:09;10.67;;;6.43;;
12312;SDS011;6220;53.580;9.758;2023-03-01T07:58:37;10.80;;;6.43;;
12312;SDS011;6220;53.580;9.758;2023-03-01T08:01:08;9.87;;;7.40;;
12312;SDS011;6220;53.580;9.758;2023-03-01T08:03:34;9.70;;;7.47;;
12312;SDS011;6220;53.580;9.758;2023-03-01T08:06:00;12.27;;;8.27;;
12312;SDS011;6220;53.580;9.758;2023-03-01T08:08:30;13.17;;;8.37;;
12312;SDS011;6220;53.580;9.758;2023-03-01T08:10:56;13.20;;;9.80;;
12312;SDS011;6220;53.580;9.758;2023-03-01T08:13:22;11.93;;;9.50;;
12312;SDS011;6220;53.580;9.758;2023-03-01T08:15:51;12.10;;;9.23;;
12312;SDS011;6220;53.580;9.758;2023-03-01T08:18:17;13.53;;;11.23;;
12312;SDS011;6220;53.580;9.758;2023-03-01T08:20:43;14.90;;;11.03;;
12312;SDS011;6220;53.580;9.758;2023-03-01T08:23:09;14.67;;;10.57;;
12312;SDS011;6220;53.580;9.758;2023-03-01T08:25:34;12.27;;;10.37;;
12312;SDS011;6220;53.580;9.758;2023-03-01T08:27:59;14.50;;;10.07;;
12312;SDS011;6220;53.580;9.758;2023-03-01T08:30:25;14.40;;;10.07;;
12312;SDS011;6220;53.580;9.758;2023-03-01T08:32:50;15.80;;;10.30;;
12312;SDS011;6220;53.580;9.758;2023-03-01T08:35:16;12.83;;;10.63;;
12312;SDS011;6220;53.580;9.758;2023-03-01T08:37:42;13.30;;;10.37;;
12312;SDS011;6220;53.580;9.758;2023-03-01T08:40:07;15.97;;;10.00;;
12312;SDS011;6220;53.580;9.758;2023-03-01T08:42:35;15.80;;;10.40;;
12312;SDS011;6220;53.580;9.758;2023-03-01T08:45:03;12.03;;;9.87;;
12312;SDS011;6220;53.580;9.758;2023-03-01T08:47:29;15.37;;;11.37;;
12312;SDS011;6220;53.580;9.758;2023-03-01T08:49:54;16.60;;;10.87;;
12312;SDS011;6220;53.580;9.758;2023-03-01T08:52:20;12.47;;;10.27;;
12312;SDS011;6220;53.580;9.758;2023-03-01T08:54:47;15.33;;;11.73;;
12312;SDS011;6220;53.580;9.758;2023-03-01T08:57:12;14.93;;;10.63;;
12312;SDS011;6220;53.580;9.758;2023-03-01T08:59:38;15.10;;;11.00;;
12312;SDS011;6220;53.580;9.758;2023-03-01T09:02:04;11.77;;;10.43;;
12312;SDS011;6220;53.580;9.758;2023-03-01T09:04:30;14.90;;;10.80;;
12312;SDS011;6220;53.580;9.758;2023-03-01T09:06:56;13.60;;;11.13;;
12312;SDS011;6220;53.580;9.758;2023-03-01T09:09:21;13.93;;;10.97;;
12312;SDS011;6220;53.580;9.758;2023-03-01T09:11:47;14.57;;;11.30;;
12312;SDS011;6220;53.580;9.758;2023-03-01T09:14:14;13.80;;;11.40;;
12312;SDS011;6220;53.580;9.758;2023-03-01T09:16:40;13.80;;;10.87;;
12312;SDS011;6220;53.580;9.758;2023-03-01T09:19:05;16.23;;;11.47;;
12312;SDS011;6220;53.580;9.758;2023-03-01T09:21:31;13.37;;;11.00;;
12312;SDS011;6220;53.580;9.758;2023-03-01T09:23:57;13.50;;;10.90;;
12312;SDS011;6220;53.580;9.758;2023-03-01T09:26:23;12.93;;;10.43;;
12312;SDS011;6220;53.580;9.758;2023-03-01T09:28:50;13.13;;;10.30;;
12312;SDS011;6220;53.580;9.758;2023-03-01T09:31:17;11.87;;;10.53;;
12312;SDS011;6220;53.580;9.758;2023-03-01T09:33:45;13.03;;;10.73;;
12312;SDS011;6220;53.580;9.758;2023-03-01T09:36:13;10.53;;;9.40;;
12312;SDS011;6220;53.580;9.758;2023-03-01T09:38:40;13.53;;;10.27;;
12312;SDS011;6220;53.580;9.758;2023-03-01T09:46:19;13.03;;;10.20;;
12312;SDS011;6220;53.580;9.758;2023-03-01T09:48:49;12.10;;;9.87;;
12312;SDS011;6220;53.580;9.758;2023-03-01T09:51:17;11.60;;;9.40;;
12312;SDS011;6220;53.580;9.758;2023-03-01T09:53:44;10.37;;;8.90;;
12312;SDS011;6220;53.580;9.758;2023-03-01T10:07:26;9.17;;;7.03;;
12312;SDS011;6220;53.580;9.758;2023-03-01T10:09:53;9.33;;;7.67;;
12312;SDS011;6220;53.580;9.758;2023-03-01T10:12:20;8.10;;;6.70;;
12312;SDS011;6220;53.580;9.758;2023-03-01T10:14:56;10.03;;;7.47;;
12312;SDS011;6220;53.580;9.758;2023-03-01T10:19:51;8.97;;;7.37;;
12312;SDS011;6220;53.580;9.758;2023-03-01T10:22:24;9.27;;;8.17;;
12312;SDS011;6220;53.580;9.758;2023-03-01T10:24:57;8.10;;;7.30;;
12312;SDS011;6220;53.580;9.758;2023-03-01T10:27:24;8.30;;;7.40;;
12312;SDS011;6220;53.580;9.758;2023-03-01T10:32:59;7.33;;;6.63;;
12312;SDS011;6220;53.580;9.758;2023-03-01T10:35:26;7.10;;;6.40;;
12312;SDS011;6220;53.580;9.758;2023-03-01T10:38:11;7.20;;;6.40;;
12312;SDS011;6220;53.580;9.758;2023-03-01T10:43:27;7.30;;;6.60;;
12312;SDS011;6220;53.580;9.758;2023-03-01T10:46:52;7.60;;;6.80;;
12312;SDS011;6220;53.580;9.758;2023-03-01T10:51:42;8.03;;;6.20;;
12312;SDS011;6220;53.580;9.758;2023-03-01T10:54:16;8.17;;;6.43;;
12312;SDS011;6220;53.580;9.758;2023-03-01T10:56:49;6.60;;;5.73;;
12312;SDS011;6220;53.580;9.758;2023-03-01T10:59:26;8.73;;;6.60;;
12312;SDS011;6220;53.580;9.758;2023-03-01T11:04:56;8.20;;;6.17;;
12312;SDS011;6220;53.580;9.758;2023-03-01T11:07:25;8.53;;;6.30;;
12312;SDS011;6220;53.580;9.758;2023-03-01T11:09:50;7.33;;;5.87;;
12312;SDS011;6220;53.580;9.758;2023-03-01T11:12:16;7.90;;;6.10;;
12312;SDS011;6220;53.580;9.758;2023-03-01T11:14:49;7.90;;;6.63;;
12312;SDS011;6220;53.580;9.758;2023-03-01T11:17:18;8.43;;;6.83;;
12312;SDS011;6220;53.580;9.758;2023-03-01T11:22:57;9.73;;;6.30;;
12312;SDS011;6220;53.580;9.758;2023-03-01T11:25:30;8.63;;;7.70;;
12312;SDS011;6220;53.580;9.758;2023-03-01T11:28:01;9.97;;;7.43;;
12312;SDS011;6220;53.580;9.758;2023-03-01T11:30:29;8.53;;;6.93;;
12312;SDS011;6220;53.580;9.758;2023-03-01T11:35:57;8.73;;;7.80;;
12312;SDS011;6220;53.580;9.758;2023-03-01T11:38:27;8.70;;;7.80;;
12312;SDS011;6220;53.580;9.758;2023-03-01T11:49:26;9.73;;;8.57;;
12312;SDS011;6220;53.580;9.758;2023-03-01T12:00:44;8.83;;;7.67;;
12312;SDS011;6220;53.580;9.758;2023-03-01T12:03:21;9.10;;;8.10;;
12312;SDS011;6220;53.580;9.758;2023-03-01T12:11:56;8.60;;;7.03;;
12312;SDS011;6220;53.580;9.758;2023-03-01T12:14:34;8.17;;;7.30;;
12312;SDS011;6220;53.580;9.758;2023-03-01T12:39:12;7.90;;;6.73;;
12312;SDS011;6220;53.580;9.758;2023-03-01T12:42:33;8.47;;;7.57;;
12312;SDS011;6220;53.580;9.758;2023-03-01T12:50:17;9.80;;;8.80;;
12312;SDS011;6220;53.580;9.758;2023-03-01T12:55:33;10.47;;;9.37;;
12312;SDS011;6220;53.580;9.758;2023-03-01T13:00:41;14.60;;;13.10;;
12312;SDS011;6220;53.580;9.758;2023-03-01T13:06:19;11.13;;;9.97;;
12312;SDS011;6220;53.580;9.758;2023-03-01T13:11:19;10.03;;;9.03;;
12312;SDS011;6220;53.580;9.758;2023-03-01T13:13:46;11.00;;;9.97;;
12312;SDS011;6220;53.580;9.758;2023-03-01T13:19:15;12.40;;;11.20;;
12312;SDS011;6220;53.580;9.758;2023-03-01T13:21:43;12.90;;;11.53;;
12312;SDS011;6220;53.580;9.758;2023-03-01T13:32:52;16.07;;;14.43;;
12312;SDS011;6220;53.580;9.758;2023-03-01T13:37:42;15.50;;;13.80;;
12312;SDS011;6220;53.580;9.758;2023-03-01T13:42:47;15.13;;;13.63;;
12312;SDS011;6220;53.580;9.758;2023-03-01T13:45:18;16.83;;;15.00;;
12312;SDS011;6220;53.580;9.758;2023-03-01T13:47:45;17.27;;;15.47;;
12312;SDS011;6220;53.580;9.758;2023-03-01T13:50:22;14.67;;;12.33;;
12312;SDS011;6220;53.580;9.758;2023-03-01T13:52:53;14.67;;;11.53;;
12312;SDS011;6220;53.580;9.758;2023-03-01T13:55:24;15.90;;;12.57;;
12312;SDS011;6220;53.580;9.758;2023-03-01T13:58:03;16.27;;;13.93;;
12312;SDS011;6220;53.580;9.758;2023-03-01T14:00:38;13.70;;;12.27;;
12312;SDS011;6220;53.580;9.758;2023-03-01T14:05:39;13.93;;;11.97;;
12312;SDS011;6220;53.580;9.758;2023-03-01T14:08:18;15.80;;;12.27;;
12312;SDS011;6220;53.580;9.758;2023-03-01T14:14:06;14.70;;;12.20;;
12312;SDS011;6220;53.580;9.758;2023-03-01T14:16:44;14.00;;;11.30;;
12312;SDS011;6220;53.580;9.758;2023-03-01T14:19:28;13.27;;;11.33;;
12312;SDS011;6220;53.580;9.758;2023-03-01T14:24:46;14.47;;;11.07;;
12312;SDS011;6220;53.580;9.758;2023-03-01T14:27:16;14.80;;;12.00;;
12312;SDS011;6220;53.580;9.758;2023-03-01T14:29:43;14.57;;;11.93;;
12312;SDS011;6220;53.580;9.758;2023-03-01T14:32:19;12.67;;;10.23;;
12312;SDS011;6220;53.580;9.758;2023-03-01T14:34:55;14.77;;;11.27;;
12312;SDS011;6220;53.580;9.758;2023-03-01T14:37:32;13.07;;;11.07;;
12312;SDS011;6220;53.580;9.758;2023-03-01T14:40:00;12.17;;;9.00;;
12312;SDS011;6220;53.580;9.758;2023-03-01T14:42:28;10.50;;;8.63;;
12312;SDS011;6220;53.580;9.758;2023-03-01T14:44:56;10.20;;;8.00;;
12312;SDS011;6220;53.580;9.758;2023-03-01T14:47:29;8.33;;;7.10;;
12312;SDS011;6220;53.580;9.758;2023-03-01T14:49:58;11.70;;;7.60;;
12312;SDS011;6220;53.580;9.758;2023-03-01T14:52:39;9.47;;;7.13;;
12312;SDS011;6220;53.580;9.758;2023-03-01T14:55:07;8.73;;;7.03;;
12312;SDS011;6220;53.580;9.758;2023-03-01T14:57:46;11.00;;;6.67;;
12312;SDS011;6220;53.580;9.758;2023-03-01T15:00:18;7.80;;;6.77;;
12312;SDS011;6220;53.580;9.758;2023-03-01T15:02:45;10.50;;;6.80;;
12312;SDS011;6220;53.580;9.758;2023-03-01T15:05:13;8.77;;;7.10;;
12312;SDS011;6220;53.580;9.758;2023-03-01T15:07:40;9.30;;;7.60;;
12312;SDS011;6220;53.580;9.758;2023-03-01T15:10:11;8.27;;;7.40;;
12312;SDS011;6220;53.580;9.758;2023-03-01T15:12:41;10.50;;;7.27;;
12312;SDS011;6220;53.580;9.758;2023-03-01T15:15:20;8.70;;;7.30;;
12312;SDS011;6220;53.580;9.758;2023-03-01T15:17:55;11.30;;;7.90;;
12312;SDS011;6220;53.580;9.758;2023-03-01T15:20:22;10.37;;;8.10;;
12312;SDS011;6220;53.580;9.758;2023-03-01T15:22:51;8.47;;;6.60;;
12312;SDS011;6220;53.580;9.758;2023-03-01T15:25:18;9.17;;;7.03;;
12312;SDS011;6220;53.580;9.758;2023-03-01T15:27:45;10.30;;;6.93;;
12312;SDS011;6220;53.580;9.758;2023-03-01T15:30:54;8.33;;;7.00;;
12312;SDS011;6220;53.580;9.758;2023-03-01T15:33:47;9.27;;;7.63;;
12312;SDS011;6220;53.580;9.758;2023-03-01T15:35:49;9.20;;;7.50;;
12312;SDS011;6220;53.580;9.758;2023-03-01T15:38:32;9.10;;;7.33;;
12312;SDS011;6220;53.580;9.758;2023-03-01T15:41:05;9.33;;;7.70;;
12312;SDS011;6220;53.580;9.758;2023-03-01T15:43:46;34.20;;;25.20;;
12312;SDS011;6220;53.580;9.758;2023-03-01T15:46:33;10.23;;;8.20;;
12312;SDS011;6220;53.580;9.758;2023-03-01T15:49:00;12.93;;;10.00;;
12312;SDS011;6220;53.580;9.758;2023-03-01T15:51:28;10.47;;;8.20;;
12312;SDS011;6220;53.580;9.758;2023-03-01T15:53:54;11.53;;;8.70;;
12312;SDS011;6220;53.580;9.758;2023-03-01T15:56:20;14.60;;;9.17;;
12312;SDS011;6220;53.580;9.758;2023-03-01T15:58:46;14.57;;;8.70;;
12312;SDS011;6220;53.580;9.758;2023-03-01T16:01:15;13.30;;;10.50;;
12312;SDS011;6220;53.580;9.758;2023-03-01T16:03:44;12.80;;;9.90;;
12312;SDS011;6220;53.580;9.758;2023-03-01T16:06:10;14.57;;;10.40;;
12312;SDS011;6220;53.580;9.758;2023-03-01T16:08:37;13.50;;;10.10;;
12312;SDS011;6220;53.580;9.758;2023-03-01T16:11:04;14.33;;;9.87;;
12312;SDS011;6220;53.580;9.758;2023-03-01T16:13:31;19.93;;;14.77;;
12312;SDS011;6220;53.580;9.758;2023-03-01T16:15:57;24.17;;;14.73;;
12312;SDS011;6220;53.580;9.758;2023-03-01T16:18:23;20.33;;;13.40;;
12312;SDS011;6220;53.580;9.758;2023-03-01T16:20:49;24.87;;;15.07;;
12312;SDS011;6220;53.580;9.758;2023-03-01T16:23:14;20.20;;;14.07;;
12312;SDS011;6220;53.580;9.758;2023-03-01T16:25:41;24.23;;;15.73;;
12312;SDS011;6220;53.580;9.758;2023-03-01T16:28:07;22.53;;;13.37;;
12312;SDS011;6220;53.580;9.758;2023-03-01T16:30:35;24.30;;;14.23;;
12312;SDS011;6220;53.580;9.758;2023-03-01T16:33:02;22.27;;;14.27;;
12312;SDS011;6220;53.580;9.758;2023-03-01T16:35:27;28.47;;;16.67;;
12312;SDS011;6220;53.580;9.758;2023-03-01T16:37:54;22.23;;;14.10;;
12312;SDS011;6220;53.580;9.758;2023-03-01T16:42:46;15.50;;;11.20;;
12312;SDS011;6220;53.580;9.758;2023-03-01T16:45:12;16.13;;;10.60;;
12312;SDS011;6220;53.580;9.758;2023-03-01T16:47:38;14.93;;;10.67;;
12312;SDS011;6220;53.580;9.758;2023-03-01T16:50:03;13.37;;;10.30;;
12312;SDS011;6220;53.580;9.758;2023-03-01T16:52:29;14.63;;;9.60;;
12312;SDS011;6220;53.580;9.758;2023-03-01T16:54:54;17.87;;;11.53;;
12312;SDS011;6220;53.580;9.758;2023-03-01T16:57:19;13.07;;;10.20;;
12312;SDS011;6220;53.580;9.758;2023-03-01T16:59:45;11.67;;;8.93;;
12312;SDS011;6220;53.580;9.758;2023-03-01T17:02:11;10.70;;;8.50;;
12312;SDS011;6220;53.580;9.758;2023-03-01T17:04:40;10.27;;;7.90;;
12312;SDS011;6220;53.580;9.758;2023-03-01T17:07:05;10.97;;;9.00;;
12312;SDS011;6220;53.580;9.758;2023-03-01T17:09:35;12.67;;;8.67;;
12312;SDS011;6220;53.580;9.758;2023-03-01T17:12:02;10.47;;;8.17;;
12312;SDS011;6220;53.580;9.758;2023-03-01T17:14:28;9.23;;;7.27;;
12312;SDS011;6220;53.580;9.758;2023-03-01T17:16:54;10.50;;;8.07;;